Time;durP1;ratioP1;P1;durP2;ratioP2;P2;SDS_P1;SDS_P2;PMS_P1;PMS_P2;Temp;Humidity;BMP_temperature;BMP_pressure;BME280_temperature;BME280_humidity;BME280_pressure;Samples;Min_cycle;Max_cycle;Signal;HPM_P1;HPM_P2
2022/07/06 00:01:26;;;;;;;1.77;1.10;;;;;;;;;;12649908;28;20060;-82
2022/07/06 00:07:27;;;;;;;3.33;0.95;;;;;;;;;;12615008;28;20032;-82
2022/07/06 00:13:29;;;;;;;1.80;1.10;;;;;;;;;;12631449;28;20024;-82
2022/07/06 00:19:31;;;;;;;;;;;;;;;;;;12649245;28;20036;-82
2022/07/06 00:25:33;;;;;;;1.60;1.00;;;;;;;;;;12630774;28;20292;-82
2022/07/06 00:31:35;;;;;;;2.95;1.55;;;;;;;;;;12628682;28;20040;-78
2022/07/06 00:37:37;;;;;;;1.80;0.60;;;;;;;;;;12649206;28;20051;-77
2022/07/06 00:43:38;;;;;;;;;;;;;;;;;;12648321;28;20055;-82
2022/07/06 00:56:00;;;;;;;0.57;0.40;;;;;;;;;;12648107;28;20040;-83
2022/07/06 01:02:02;;;;;;;0.40;0.32;;;;;;;;;;12631100;28;20086;-82
2022/07/06 01:08:04;;;;;;;;;;;;;;;;;;12629195;28;20028;-82
2022/07/06 01:14:06;;;;;;;0.80;0.80;;;;;;;;;;12647594;28;19912;-82
2022/07/06 01:20:15;;;;;;;1.40;0.80;;;;;;;;;;12613493;28;20036;-82
2022/07/06 01:26:19;;;;;;;1.02;0.80;;;;;;;;;;12646420;28;20040;-78
2022/07/06 01:32:20;;;;;;;1.48;0.63;;;;;;;;;;12627496;28;20036;-82
2022/07/06 01:38:23;;;;;;;1.38;0.50;;;;;;;;;;12628420;28;20392;-82
2022/07/06 01:44:25;;;;;;;;;;;;;;;;;;12627237;28;20055;-78
2022/07/06 01:50:26;;;;;;;1.50;0.40;;;;;;;;;;12610218;28;19908;-78
2022/07/06 01:56:28;;;;;;;0.55;0.50;;;;;;;;;;12609861;28;20028;-77
2022/07/06 02:02:34;;;;;;;1.63;0.60;;;;;;;;;;12626505;28;20036;-78
2022/07/06 02:08:37;;;;;;;1.25;0.43;;;;;;;;;;12644929;28;20032;-82
2022/07/06 02:14:38;;;;;;;0.55;0.55;;;;;;;;;;12626360;28;20036;-79
2022/07/06 02:20:40;;;;;;;;;;;;;;;;;;12609298;28;20043;-81
2022/07/06 02:26:42;;;;;;;0.60;0.43;;;;;;;;;;12643699;28;20062;-82
2022/07/06 02:32:43;;;;;;;;;;;;;;;;;;12625852;28;20035;-81
2022/07/06 02:38:45;;;;;;;1.53;0.77;;;;;;;;;;12625721;28;19923;-82
2022/07/06 02:44:46;;;;;;;;;;;;;;;;;;12626485;28;20048;-82
2022/07/06 02:50:48;;;;;;;1.23;0.60;;;;;;;;;;12645338;28;19908;-78
2022/07/06 02:56:53;;;;;;;1.13;0.82;;;;;;;;;;12635218;28;20507;-77
2022/07/06 03:02:55;;;;;;;1.15;0.82;;;;;;;;;;12635028;28;20051;-78
2022/07/06 03:08:58;;;;;;;0.70;0.70;;;;;;;;;;12635118;28;20044;-81
2022/07/06 03:15:01;;;;;;;1.45;0.95;;;;;;;;;;12634392;28;20036;-81
2022/07/06 03:21:04;;;;;;;1.73;1.00;;;;;;;;;;12633691;28;20043;-77
2022/07/06 03:27:07;;;;;;;0.70;0.60;;;;;;;;;;12633177;28;20036;-81
2022/07/06 03:33:09;;;;;;;1.25;0.70;;;;;;;;;;12651375;28;20043;-77
2022/07/06 03:39:11;;;;;;;;;;;;;;;;;;12634103;28;20090;-77
2022/07/06 03:45:13;;;;;;;0.75;0.73;;;;;;;;;;12632844;28;19946;-81
2022/07/06 03:51:17;;;;;;;1.58;0.93;;;;;;;;;;12632495;28;20372;-81
2022/07/06 03:57:19;;;;;;;1.33;1.23;;;;;;;;;;12632098;28;20050;-77
2022/07/06 04:03:21;;;;;;;1.30;1.20;;;;;;;;;;12632098;28;20044;-81
2022/07/06 04:09:26;;;;;;;1.40;1.30;;;;;;;;;;12622405;28;20046;-81
2022/07/06 04:15:28;;;;;;;1.48;0.93;;;;;;;;;;12641328;28;20066;-81
2022/07/06 04:21:30;;;;;;;1.17;1.08;;;;;;;;;;12615045;28;20039;-78
2022/07/06 04:27:32;;;;;;;0.88;0.80;;;;;;;;;;12630905;28;20043;-78
2022/07/06 04:33:35;;;;;;;1.50;1.08;;;;;;;;;;12631373;28;20035;-82
2022/07/06 04:39:37;;;;;;;1.00;1.00;;;;;;;;;;12613916;28;20048;-78
2022/07/06 04:45:38;;;;;;;;;;;;;;;;;;12630925;28;20044;-78
2022/07/06 04:51:40;;;;;;;1.20;0.83;;;;;;;;;;12629554;28;19908;-82
2022/07/06 04:57:43;;;;;;;1.73;0.80;;;;;;;;;;12628697;28;20301;-82
2022/07/06 05:03:47;;;;;;;0.80;0.80;;;;;;;;;;12628359;28;20055;-82
2022/07/06 05:09:50;;;;;;;1.42;1.15;;;;;;;;;;12630933;28;20032;-83
2022/07/06 05:15:52;;;;;;;1.00;0.90;;;;;;;;;;12627611;28;20419;-82
2022/07/06 05:21:55;;;;;;;1.30;1.20;;;;;;;;;;12610872;28;20040;-77
2022/07/06 05:27:57;;;;;;;1.48;1.30;;;;;;;;;;12628165;28;20036;-79
2022/07/06 05:34:00;;;;;;;1.30;0.88;;;;;;;;;;12627395;28;20475;-79
2022/07/06 05:40:03;;;;;;;0.95;0.90;;;;;;;;;;12611280;28;20048;-79
2022/07/06 05:46:06;;;;;;;1.67;1.10;;;;;;;;;;12611199;28;20400;-79
2022/07/06 05:52:10;;;;;;;1.35;1.25;;;;;;;;;;12626438;28;20032;-79
2022/07/06 05:58:11;;;;;;;2.38;0.90;;;;;;;;;;12644545;28;20039;-79
2022/07/06 06:04:14;;;;;;;1.60;1.25;;;;;;;;;;12626636;28;20510;-79
2022/07/06 06:10:16;;;;;;;1.45;1.10;;;;;;;;;;12630780;28;20028;-84
2022/07/06 06:16:19;;;;;;;1.00;0.90;;;;;;;;;;12609994;28;20036;-79
2022/07/06 06:22:22;;;;;;;1.05;0.80;;;;;;;;;;12625960;28;20058;-79
2022/07/06 06:28:23;;;;;;;1.17;1.08;;;;;;;;;;12633181;28;20399;-78
2022/07/06 06:34:25;;;;;;;0.68;0.68;;;;;;;;;;12654547;28;20028;-82
2022/07/06 06:40:27;;;;;;;1.77;1.10;;;;;;;;;;12654162;28;20044;-79
2022/07/06 06:46:29;;;;;;;1.00;1.00;;;;;;;;;;12635896;28;20048;-83
2022/07/06 06:52:31;;;;;;;1.40;0.82;;;;;;;;;;12653676;28;20036;-83
2022/07/06 06:58:33;;;;;;;1.50;1.25;;;;;;;;;;12635931;28;20036;-83
2022/07/06 07:04:34;;;;;;;1.00;1.00;;;;;;;;;;12635026;28;20483;-83
2022/07/06 07:10:36;;;;;;;0.70;0.70;;;;;;;;;;12655413;28;20040;-83
2022/07/06 07:16:38;;;;;;;0.50;0.50;;;;;;;;;;12634499;28;20043;-79
2022/07/06 07:22:40;;;;;;;1.55;0.70;;;;;;;;;;12617104;28;20046;-79
2022/07/06 07:28:41;;;;;;;0.70;0.70;;;;;;;;;;12633427;28;20031;-79
2022/07/06 07:34:43;;;;;;;0.75;0.30;;;;;;;;;;12633336;28;20036;-79
2022/07/06 07:40:45;;;;;;;0.50;0.50;;;;;;;;;;12632233;28;20407;-83
2022/07/06 07:46:47;;;;;;;0.57;0.40;;;;;;;;;;12632485;28;20396;-83
2022/07/06 07:52:49;;;;;;;3.83;0.40;;;;;;;;;;12650237;28;20040;-83
2022/07/06 07:58:50;;;;;;;0.20;0.20;;;;;;;;;;12650135;28;20032;-79
2022/07/06 08:04:57;;;;;;;0.73;0.60;;;;;;;;;;12631788;28;20036;-78
2022/07/06 08:10:59;;;;;;;0.70;0.50;;;;;;;;;;12631671;28;20036;-78
2022/07/06 08:17:00;;;;;;;0.30;0.30;;;;;;;;;;12614192;28;20040;-79
2022/07/06 08:23:02;;;;;;;1.20;0.60;;;;;;;;;;12630355;28;20051;-79
2022/07/06 08:29:04;;;;;;;0.70;0.50;;;;;;;;;;12648312;28;20035;-79
2022/07/06 08:35:06;;;;;;;0.52;0.52;;;;;;;;;;12629812;28;20043;-79
2022/07/06 08:41:08;;;;;;;0.40;0.35;;;;;;;;;;12629822;28;20381;-83
2022/07/06 08:47:11;;;;;;;0.65;0.30;;;;;;;;;;12613178;28;20044;-78
2022/07/06 08:53:18;;;;;;;0.50;0.50;;;;;;;;;;12629064;28;20036;-78
2022/07/06 08:59:20;;;;;;;0.50;0.45;;;;;;;;;;12612069;28;20028;-82
2022/07/06 09:05:22;;;;;;;0.68;0.35;;;;;;;;;;12654995;28;20040;-82
2022/07/06 09:11:25;;;;;;;0.68;0.40;;;;;;;;;;12645676;28;20460;-82
2022/07/06 09:17:30;;;;;;;0.30;0.30;;;;;;;;;;12646449;28;20028;-83
2022/07/06 09:23:33;;;;;;;0.30;0.30;;;;;;;;;;12645659;28;20036;-82
2022/07/06 09:29:36;;;;;;;0.47;0.30;;;;;;;;;;12627321;28;20488;-83
2022/07/06 09:35:38;;;;;;;0.30;0.30;;;;;;;;;;12645108;28;20043;-81
2022/07/06 09:41:40;;;;;;;0.77;0.60;;;;;;;;;;12626808;28;20052;-81
2022/07/06 09:47:46;;;;;;;0.40;0.30;;;;;;;;;;12626960;28;20391;-81
2022/07/06 09:53:53;;;;;;;0.20;0.20;;;;;;;;;;12626494;28;20035;-82
2022/07/06 09:59:55;;;;;;;1.27;0.30;;;;;;;;;;12609407;28;20040;-78
2022/07/06 10:05:57;;;;;;;0.50;0.30;;;;;;;;;;12609364;28;20036;-78
2022/07/06 10:12:01;;;;;;;0.40;0.30;;;;;;;;;;12644316;28;20032;-77
2022/07/06 10:18:03;;;;;;;3.00;0.55;;;;;;;;;;12625354;28;20523;-77
2022/07/06 10:24:06;;;;;;;0.93;0.30;;;;;;;;;;12643275;28;20051;-77
2022/07/06 10:30:08;;;;;;;0.95;0.30;;;;;;;;;;12625590;28;20384;-81
2022/07/06 10:36:30;;;;;;;0.40;0.28;;;;;;;;;;12642598;28;20032;-82
2022/07/06 10:42:41;;;;;;;0.20;0.15;;;;;;;;;;12607976;28;20044;-82
2022/07/06 10:48:44;;;;;;;0.60;0.43;;;;;;;;;;12624634;28;20043;-82
2022/07/06 10:54:47;;;;;;;0.50;0.17;;;;;;;;;;12642963;28;20040;-82
2022/07/06 11:00:51;;;;;;;0.22;0.22;;;;;;;;;;12624802;28;20036;-82
2022/07/06 11:06:53;;;;;;;1.10;0.20;;;;;;;;;;12607901;28;20040;-81
2022/07/06 11:13:01;;;;;;;0.20;0.20;;;;;;;;;;12611376;28;20028;-82
2022/07/06 11:19:10;;;;;;;0.55;0.38;;;;;;;;;;12633929;28;20040;-81
2022/07/06 11:25:12;;;;;;;0.80;0.28;;;;;;;;;;12633926;28;20042;-82
2022/07/06 11:31:14;;;;;;;0.30;0.30;;;;;;;;;;12633384;28;20036;-81
2022/07/06 11:37:20;;;;;;;1.05;0.20;;;;;;;;;;12651304;28;20415;-81
2022/07/06 11:43:22;;;;;;;0.20;0.20;;;;;;;;;;12633047;28;20408;-82
2022/07/06 11:49:24;;;;;;;0.30;0.30;;;;;;;;;;12632339;28;20036;-84
2022/07/06 11:55:28;;;;;;;0.30;0.30;;;;;;;;;;12650826;28;20032;-81
2022/07/06 12:01:31;;;;;;;0.25;0.20;;;;;;;;;;12649677;28;20160;-81
2022/07/06 12:07:33;;;;;;;1.55;0.55;;;;;;;;;;12650369;28;20040;-82
2022/07/06 12:13:42;;;;;;;0.45;0.32;;;;;;;;;;12631352;28;20036;-77
2022/07/06 12:19:44;;;;;;;0.30;0.30;;;;;;;;;;12648765;28;20024;-81
2022/07/06 12:25:48;;;;;;;0.20;0.20;;;;;;;;;;12630681;28;20047;-82
2022/07/06 12:31:54;;;;;;;0.60;0.40;;;;;;;;;;12648488;28;20035;-81
2022/07/06 12:37:57;;;;;;;0.20;0.20;;;;;;;;;;12648086;28;20052;-81
2022/07/06 12:44:02;;;;;;;0.55;0.20;;;;;;;;;;12613740;28;20054;-80
2022/07/06 12:50:06;;;;;;;0.85;0.50;;;;;;;;;;12647008;28;20028;-82
2022/07/06 12:56:11;;;;;;;0.30;0.30;;;;;;;;;;12629193;28;20028;-81
2022/07/06 13:02:24;;;;;;;0.30;0.30;;;;;;;;;;12646730;28;20044;-81
2022/07/06 13:08:25;;;;;;;0.20;0.20;;;;;;;;;;12647050;28;20043;-82
2022/07/06 13:14:28;;;;;;;0.30;0.30;;;;;;;;;;12646308;28;20031;-82
2022/07/06 13:20:29;;;;;;;0.35;0.22;;;;;;;;;;12611077;28;20161;-81
2022/07/06 13:26:33;;;;;;;0.38;0.25;;;;;;;;;;12645976;28;20044;-81
2022/07/06 13:32:35;;;;;;;0.20;0.20;;;;;;;;;;12627150;28;20071;-82
2022/07/06 13:38:37;;;;;;;0.50;0.30;;;;;;;;;;12626318;28;20058;-82
2022/07/06 13:44:39;;;;;;;1.42;0.20;;;;;;;;;;12610155;28;20048;-82
2022/07/06 13:50:41;;;;;;;0.63;0.32;;;;;;;;;;12627880;28;20028;-82
2022/07/06 13:56:42;;;;;;;0.28;0.13;;;;;;;;;;12646130;28;20036;-82
2022/07/06 14:02:45;;;;;;;0.15;0.10;;;;;;;;;;12626262;28;20036;-82
2022/07/06 14:08:46;;;;;;;0.20;0.20;;;;;;;;;;12626474;28;20463;-82
2022/07/06 14:14:48;;;;;;;0.25;0.20;;;;;;;;;;12625983;28;20387;-82
2022/07/06 14:20:50;;;;;;;0.60;0.30;;;;;;;;;;12613434;28;20036;-82
2022/07/06 14:26:52;;;;;;;0.10;0.08;;;;;;;;;;12647988;28;20044;-82
2022/07/06 14:32:54;;;;;;;0.90;0.20;;;;;;;;;;12643833;28;20047;-82
2022/07/06 14:38:56;;;;;;;0.57;0.20;;;;;;;;;;12609398;28;20055;-83
2022/07/06 14:44:57;;;;;;;0.25;0.20;;;;;;;;;;12643395;28;20048;-82
2022/07/06 14:50:59;;;;;;;0.75;0.10;;;;;;;;;;12634064;28;20476;-82
2022/07/06 14:57:02;;;;;;;0.10;0.10;;;;;;;;;;12634578;28;20039;-82
2022/07/06 15:03:03;;;;;;;0.00;0.00;;;;;;;;;;12633934;28;20048;-82
2022/07/06 15:09:05;;;;;;;0.30;0.08;;;;;;;;;;12634959;28;20047;-82
2022/07/06 15:15:07;;;;;;;0.10;0.08;;;;;;;;;;12619924;28;20032;-83
2022/07/06 15:21:09;;;;;;;0.17;0.17;;;;;;;;;;12651832;28;20039;-82
2022/07/06 15:27:11;;;;;;;0.17;0.17;;;;;;;;;;12633289;28;20051;-82
2022/07/06 15:33:13;;;;;;;0.40;0.30;;;;;;;;;;12633168;28;20051;-82
2022/07/06 15:39:15;;;;;;;0.20;0.20;;;;;;;;;;12632693;28;20059;-82
2022/07/06 15:45:18;;;;;;;0.55;0.15;;;;;;;;;;12632555;28;20055;-82
2022/07/06 15:51:19;;;;;;;0.10;0.05;;;;;;;;;;12650021;28;20031;-82
2022/07/06 15:57:21;;;;;;;0.22;0.10;;;;;;;;;;12649587;28;20047;-78
2022/07/06 16:03:23;;;;;;;0.85;0.10;;;;;;;;;;12614798;28;20040;-78
2022/07/06 16:09:25;;;;;;;0.10;0.10;;;;;;;;;;12632548;28;20028;-78
2022/07/06 16:15:27;;;;;;;0.10;0.10;;;;;;;;;;12631565;28;20032;-79
2022/07/06 16:21:29;;;;;;;0.20;0.10;;;;;;;;;;12630391;28;20502;-78
2022/07/06 16:27:31;;;;;;;0.10;0.10;;;;;;;;;;12613769;28;20384;-78
2022/07/06 16:33:34;;;;;;;0.30;0.10;;;;;;;;;;12630451;28;20032;-78
2022/07/06 16:39:36;;;;;;;0.28;0.20;;;;;;;;;;12647991;28;20416;-78
2022/07/06 16:45:38;;;;;;;1.02;0.15;;;;;;;;;;12648334;28;20044;-78
2022/07/06 16:51:39;;;;;;;0.10;0.10;;;;;;;;;;12647292;28;20115;-79
2022/07/06 16:57:43;;;;;;;0.73;0.20;;;;;;;;;;12646910;28;20028;-78
2022/07/06 17:03:45;;;;;;;1.10;0.20;;;;;;;;;;12646858;28;20051;-78
2022/07/06 17:09:46;;;;;;;0.75;0.20;;;;;;;;;;12628427;28;20040;-78
2022/07/06 17:15:48;;;;;;;0.50;0.20;;;;;;;;;;12645971;28;20044;-78
2022/07/06 17:21:50;;;;;;;0.93;0.20;;;;;;;;;;12628459;28;20047;-78
2022/07/06 17:27:52;;;;;;;0.22;0.20;;;;;;;;;;12611086;28;20051;-78
2022/07/06 17:33:54;;;;;;;0.10;0.10;;;;;;;;;;12644662;28;20042;-78
2022/07/06 17:39:55;;;;;;;0.68;0.10;;;;;;;;;;12626981;28;20066;-78
2022/07/06 17:45:57;;;;;;;1.08;0.13;;;;;;;;;;12626685;28;20044;-78
2022/07/06 17:51:59;;;;;;;0.30;0.10;;;;;;;;;;12644883;28;20067;-78
2022/07/06 17:58:03;;;;;;;0.20;0.10;;;;;;;;;;12626217;28;20036;-79
2022/07/06 18:04:05;;;;;;;0.80;0.10;;;;;;;;;;12643885;28;20040;-82
2022/07/06 18:10:07;;;;;;;0.15;0.15;;;;;;;;;;12645466;28;20031;-82
2022/07/06 18:16:08;;;;;;;0.57;0.22;;;;;;;;;;12643962;28;20468;-82
2022/07/06 18:22:10;;;;;;;0.10;0.10;;;;;;;;;;12609114;28;20051;-82
2022/07/06 18:28:18;;;;;;;0.20;0.20;;;;;;;;;;12625613;28;20175;-82
2022/07/06 18:34:20;;;;;;;1.75;0.52;;;;;;;;;;12626332;28;20043;-83
2022/07/06 18:40:22;;;;;;;0.60;0.40;;;;;;;;;;12626133;28;20060;-77
2022/07/06 18:46:24;;;;;;;1.00;0.70;;;;;;;;;;12624907;28;20078;-78
2022/07/06 18:52:26;;;;;;;1.30;0.70;;;;;;;;;;12642754;28;20035;-78
2022/07/06 18:58:27;;;;;;;1.23;0.65;;;;;;;;;;12625124;28;20028;-78
2022/07/06 19:04:29;;;;;;;1.38;0.90;;;;;;;;;;12642565;28;20047;-78
2022/07/06 19:10:31;;;;;;;1.10;0.88;;;;;;;;;;12625241;28;20032;-78
2022/07/06 19:16:34;;;;;;;2.20;1.10;;;;;;;;;;12642520;28;20035;-78
2022/07/06 19:22:36;;;;;;;1.45;1.00;;;;;;;;;;12624344;28;20040;-82
2022/07/06 19:28:38;;;;;;;2.65;0.80;;;;;;;;;;12631675;28;20032;-83
2022/07/06 19:34:40;;;;;;;1.10;1.00;;;;;;;;;;12636320;28;20043;-82
2022/07/06 19:40:42;;;;;;;1.77;0.77;;;;;;;;;;12651172;28;20040;-82
2022/07/06 19:46:44;;;;;;;3.38;0.75;;;;;;;;;;12632328;28;20043;-78
2022/07/06 19:52:46;;;;;;;1.73;0.75;;;;;;;;;;12632033;28;20396;-77
2022/07/06 19:58:48;;;;;;;1.23;0.60;;;;;;;;;;12649874;28;20040;-77
2022/07/06 20:04:51;;;;;;;0.40;0.40;;;;;;;;;;12649595;28;20400;-78
2022/07/06 20:10:53;;;;;;;0.75;0.52;;;;;;;;;;12651008;28;20036;-77
2022/07/06 20:16:55;;;;;;;1.30;0.60;;;;;;;;;;12631090;28;20178;-82
2022/07/06 20:22:57;;;;;;;0.70;0.70;;;;;;;;;;12613865;28;20055;-82
2022/07/06 20:28:59;;;;;;;0.40;0.40;;;;;;;;;;12631354;28;20032;-82
2022/07/06 20:35:01;;;;;;;0.70;0.70;;;;;;;;;;12630887;28;20028;-81
2022/07/06 20:41:03;;;;;;;1.00;0.70;;;;;;;;;;12648432;28;20056;-82
2022/07/06 20:47:05;;;;;;;0.68;0.65;;;;;;;;;;12646863;28;20059;-83
2022/07/06 20:53:07;;;;;;;0.60;0.55;;;;;;;;;;12629889;28;20400;-82
2022/07/06 20:59:09;;;;;;;0.55;0.43;;;;;;;;;;12612945;28;20039;-82
2022/07/06 21:05:10;;;;;;;0.80;0.50;;;;;;;;;;12647822;28;20052;-78
2022/07/06 21:11:12;;;;;;;0.80;0.73;;;;;;;;;;12648331;28;20043;-78
2022/07/06 21:17:14;;;;;;;0.95;0.70;;;;;;;;;;12612366;28;20051;-78
2022/07/06 21:23:16;;;;;;;0.93;0.70;;;;;;;;;;12628814;28;20044;-82
2022/07/06 21:29:17;;;;;;;0.68;0.68;;;;;;;;;;12611806;28;20032;-78
2022/07/06 21:35:19;;;;;;;0.80;0.80;;;;;;;;;;12627762;28;20036;-82
2022/07/06 21:41:21;;;;;;;0.70;0.65;;;;;;;;;;12645781;28;20055;-82
2022/07/06 21:47:23;;;;;;;1.55;0.68;;;;;;;;;;12611167;28;20492;-78
2022/07/06 21:53:28;;;;;;;0.70;0.70;;;;;;;;;;12645266;28;20066;-78
2022/07/06 21:59:30;;;;;;;0.65;0.65;;;;;;;;;;12644474;28;20036;-83
2022/07/06 22:05:32;;;;;;;0.95;0.80;;;;;;;;;;12626134;28;20064;-80
2022/07/06 22:11:34;;;;;;;0.65;0.52;;;;;;;;;;12643966;28;20495;-78
2022/07/06 22:17:36;;;;;;;1.00;0.90;;;;;;;;;;12626060;28;20043;-82
2022/07/06 22:23:39;;;;;;;0.90;0.90;;;;;;;;;;12609105;28;20044;-78
2022/07/06 22:29:41;;;;;;;0.90;0.80;;;;;;;;;;12643678;28;20031;-78
2022/07/06 22:35:43;;;;;;;0.85;0.85;;;;;;;;;;12625854;28;20028;-78
2022/07/06 22:41:45;;;;;;;0.80;0.80;;;;;;;;;;12644037;28;20495;-78
2022/07/06 22:47:47;;;;;;;2.40;0.70;;;;;;;;;;12624864;28;20052;-83
2022/07/06 22:53:49;;;;;;;1.20;0.82;;;;;;;;;;12643144;28;20040;-82
2022/07/06 22:59:51;;;;;;;1.52;0.80;;;;;;;;;;12625559;28;20032;-78
2022/07/06 23:05:53;;;;;;;0.88;0.85;;;;;;;;;;12625592;28;20051;-78
2022/07/06 23:11:55;;;;;;;1.48;1.00;;;;;;;;;;12633450;28;20027;-78
2022/07/06 23:17:57;;;;;;;0.90;0.90;;;;;;;;;;12634207;28;20379;-78
2022/07/06 23:24:00;;;;;;;2.15;1.00;;;;;;;;;;12651972;28;20043;-83
2022/07/06 23:30:02;;;;;;;0.80;0.80;;;;;;;;;;12617782;28;20035;-82
2022/07/06 23:36:05;;;;;;;1.42;0.75;;;;;;;;;;12652026;28;20020;-78
2022/07/06 23:42:07;;;;;;;1.20;1.00;;;;;;;;;;12650758;28;20060;-82
2022/07/06 23:48:09;;;;;;;1.33;1.02;;;;;;;;;;12651431;28;20028;-82
2022/07/06 23:54:11;;;;;;;1.67;1.20;;;;;;;;;;12632241;28;20024;-78
